Time;durP1;ratioP1;P1;durP2;ratioP2;P2;SDS_P1;SDS_P2;PMS_P1;PMS_P2;Temp;Humidity;BMP_temperature;BMP_pressure;BME280_temperature;BME280_humidity;BME280_pressure;Samples;Min_cycle;Max_cycle;Signal;HPM_P1;HPM_P2
2023/01/23 04:01:39;;;;;;;36.20;32.70;;;0.80;99.90;;;;;;5536630;23;20231;-72
2023/01/23 04:04:05;;;;;;;31.87;28.60;;;0.80;99.90;;;;;;5009937;28;20332;-74
2023/01/23 04:06:31;;;;;;;28.20;24.40;;;0.80;99.90;;;;;;4995065;28;20275;-71
2023/01/23 04:08:57;;;;;;;31.87;28.53;;;0.80;99.90;;;;;;5011026;28;20207;-71
2023/01/23 04:11:23;;;;;;;32.40;29.17;;;0.80;99.90;;;;;;5003198;28;20202;-74
2023/01/23 04:13:49;;;;;;;43.27;38.77;;;0.80;99.90;;;;;;5009731;23;20662;-73
2023/01/23 04:16:15;;;;;;;35.80;32.40;;;0.80;99.90;;;;;;4972576;28;20284;-72
2023/01/23 04:18:41;;;;;;;37.47;33.47;;;0.80;99.90;;;;;;4970352;28;20300;-73
2023/01/23 04:21:07;;;;;;;35.53;31.87;;;0.90;99.90;;;;;;4972212;28;20276;-72
2023/01/23 04:23:33;;;;;;;29.47;25.97;;;0.80;99.90;;;;;;4972394;28;20241;-72
2023/01/23 04:25:59;;;;;;;27.27;21.93;;;0.80;99.90;;;;;;4972159;28;20332;-72
2023/01/23 04:28:25;;;;;;;27.63;21.50;;;0.80;99.90;;;;;;4971480;28;20834;-72
2023/01/23 04:30:51;;;;;;;27.43;19.87;;;0.80;99.90;;;;;;4972588;28;20219;-72
2023/01/23 04:33:18;;;;;;;30.00;21.03;;;0.80;99.90;;;;;;4972266;28;20184;-72
2023/01/23 04:35:55;;;;;;;28.23;18.57;;;0.90;99.90;;;;;;4972237;28;20193;-72
2023/01/23 04:38:25;;;;;;;26.03;18.87;;;0.90;99.90;;;;;;4951021;29;20181;-72
2023/01/23 04:40:51;;;;;;;28.43;21.30;;;0.90;99.90;;;;;;4951465;28;20572;-72
2023/01/23 04:43:17;;;;;;;26.17;20.20;;;0.90;99.90;;;;;;4951359;29;20189;-72
2023/01/23 04:45:44;;;;;;;25.37;18.97;;;0.90;99.90;;;;;;4951223;28;20718;-72
2023/01/23 04:48:11;;;;;;;27.73;22.03;;;1.00;99.90;;;;;;4951672;28;20203;-72
2023/01/23 04:50:37;;;;;;;31.60;19.77;;;1.00;99.90;;;;;;4952172;28;20183;-72
2023/01/23 04:53:04;;;;;;;28.33;18.50;;;0.90;99.90;;;;;;4951099;29;20271;-73
2023/01/23 04:55:30;;;;;;;24.00;18.23;;;0.90;99.90;;;;;;4951587;28;20201;-73
2023/01/23 04:57:56;;;;;;;30.67;19.10;;;0.90;99.90;;;;;;4962023;28;20853;-72
2023/01/23 05:00:22;;;;;;;30.00;20.13;;;0.90;99.90;;;;;;4957661;28;20228;-72
2023/01/23 05:02:48;;;;;;;28.47;20.30;;;1.00;99.90;;;;;;4951477;29;20696;-72
2023/01/23 05:05:20;;;;;;;26.03;21.83;;;0.90;99.90;;;;;;4961884;28;20205;-72
2023/01/23 05:07:47;;;;;;;28.93;23.90;;;1.00;99.90;;;;;;4971308;28;20253;-72
2023/01/23 05:10:14;;;;;;;29.30;22.40;;;0.90;99.90;;;;;;4972001;28;20696;-72
2023/01/23 05:12:40;;;;;;;29.87;18.73;;;0.90;99.90;;;;;;4971188;28;20622;-72
2023/01/23 05:15:07;;;;;;;25.30;18.70;;;0.90;99.90;;;;;;4970727;28;20321;-72
2023/01/23 05:17:33;;;;;;;29.80;18.33;;;0.90;99.90;;;;;;4961088;28;20192;-73
2023/01/23 05:19:58;;;;;;;24.17;17.90;;;0.90;99.90;;;;;;4951499;29;20181;-72
2023/01/23 05:22:24;;;;;;;27.17;18.77;;;0.90;99.90;;;;;;4952491;28;20207;-72
2023/01/23 05:24:50;;;;;;;27.40;19.87;;;0.90;99.90;;;;;;4951041;28;20269;-72
2023/01/23 05:27:16;;;;;;;24.70;19.73;;;0.90;99.90;;;;;;4952333;29;20187;-72
2023/01/23 05:29:42;;;;;;;22.67;18.57;;;0.90;99.90;;;;;;4951987;28;20711;-72
2023/01/23 05:32:08;;;;;;;23.47;17.83;;;0.90;99.90;;;;;;4952950;29;20265;-72
2023/01/23 05:34:34;;;;;;;26.77;17.63;;;0.90;99.90;;;;;;4951165;28;20300;-72
2023/01/23 05:37:00;;;;;;;25.10;19.27;;;0.90;99.90;;;;;;4950433;29;20187;-72
2023/01/23 05:39:26;;;;;;;22.80;18.30;;;0.90;99.90;;;;;;4952123;28;20183;-72
2023/01/23 05:41:51;;;;;;;27.50;22.73;;;0.90;99.90;;;;;;4952309;28;20192;-72
2023/01/23 05:44:17;;;;;;;24.97;21.50;;;1.00;99.90;;;;;;4952063;28;20198;-72
2023/01/23 05:46:43;;;;;;;26.63;22.93;;;0.90;99.90;;;;;;4952220;28;20680;-72
2023/01/23 05:49:09;;;;;;;24.20;20.63;;;0.90;99.90;;;;;;4952135;28;20306;-73
2023/01/23 05:51:35;;;;;;;25.07;19.43;;;0.90;99.90;;;;;;4950974;28;20182;-72
2023/01/23 05:54:01;;;;;;;28.90;20.00;;;0.90;99.90;;;;;;4960692;28;20203;-72
2023/01/23 09:33:34;;;;;;;12.77;11.40;;;1.30;99.90;;;;;;5087630;28;20817;-72
2023/01/23 09:36:00;;;;;;;12.77;11.47;;;1.40;99.90;;;;;;5068149;28;20194;-73
2023/01/23 09:38:26;;;;;;;13.20;12.10;;;1.50;99.90;;;;;;5068253;28;20209;-73
2023/01/23 09:41:05;;;;;;;13.67;10.97;;;1.50;99.90;;;;;;5064720;28;20868;-72
2023/01/23 09:43:31;;;;;;;10.97;10.03;;;1.60;99.90;;;;;;5048177;28;20190;-72
2023/01/23 09:45:57;;;;;;;11.77;9.37;;;1.60;99.90;;;;;;5048305;28;20262;-73
2023/01/23 09:48:32;;;;;;;14.30;12.50;;;1.60;99.90;;;;;;5048382;28;20228;-73
2023/01/23 09:51:04;;;;;;;17.73;12.03;;;1.80;99.90;;;;;;5049557;28;20196;-73
2023/01/23 09:53:39;;;;;;;14.63;11.87;;;1.90;99.90;;;;;;5049596;28;20189;-73
2023/01/23 09:56:40;;;;;;;13.73;10.57;;;2.10;99.90;;;;;;5049391;28;20551;-73
2023/01/23 09:59:11;;;;;;;10.63;9.60;;;2.10;99.90;;;;;;5087065;28;20274;-72
2023/01/23 10:01:37;;;;;;;40.70;37.43;;;2.20;99.90;;;;;;5087949;28;20193;-73
2023/01/23 10:04:04;;;;;;;19.20;17.30;;;2.20;99.90;;;;;;5087532;28;20225;-73
2023/01/23 10:06:40;;;;;;;19.43;17.43;;;2.30;99.90;;;;;;5087623;28;20807;-73
2023/01/23 10:09:20;;;;;;;18.43;16.53;;;2.40;99.90;;;;;;5078714;28;20272;-73
2023/01/23 10:12:27;;;;;;;13.43;11.47;;;2.50;99.90;;;;;;5067288;28;20745;-73
2023/01/23 10:15:04;;;;;;;10.23;9.27;;;2.60;99.90;;;;;;5067194;28;20289;-73
2023/01/23 10:18:07;;;;;;;13.53;12.23;;;2.60;99.90;;;;;;5066908;28;20183;-73
2023/01/23 10:20:52;;;;;;;19.30;17.40;;;2.70;99.90;;;;;;5067195;28;20178;-73
2023/01/23 10:23:47;;;;;;;20.67;18.97;;;2.80;99.90;;;;;;5066766;28;20644;-73
2023/01/23 10:26:21;;;;;;;15.87;13.17;;;2.80;99.90;;;;;;5066182;28;20223;-73
2023/01/23 10:28:50;;;;;;;26.23;23.53;;;2.70;99.90;;;;;;5066603;28;20266;-73
2023/01/23 10:31:32;;;;;;;22.37;20.27;;;2.50;99.90;;;;;;5066432;28;20211;-73
2023/01/23 10:34:13;;;;;;;24.83;22.53;;;2.50;99.90;;;;;;5069057;28;20212;-72
2023/01/23 10:36:57;;;;;;;18.10;16.37;;;2.50;99.90;;;;;;5067054;28;20187;-72
2023/01/23 10:39:33;;;;;;;23.90;21.63;;;2.50;99.90;;;;;;5067562;28;20231;-72
2023/01/23 10:41:59;;;;;;;22.97;21.10;;;2.50;99.90;;;;;;5066706;28;20204;-71
2023/01/23 10:44:24;;;;;;;17.40;16.07;;;2.40;99.90;;;;;;5054293;28;20243;-72
2023/01/23 10:46:58;;;;;;;24.23;22.30;;;2.50;99.90;;;;;;5051639;28;20193;-73
2023/01/23 10:49:34;;;;;;;23.83;21.73;;;2.50;99.90;;;;;;5052053;28;20537;-73
2023/01/23 10:52:00;;;;;;;21.27;19.23;;;2.70;99.90;;;;;;5053272;28;20207;-72
2023/01/23 10:54:29;;;;;;;19.30;17.50;;;2.90;99.90;;;;;;5053346;28;20198;-73
2023/01/23 10:57:17;;;;;;;16.50;13.30;;;3.10;99.90;;;;;;5053308;28;20181;-72
2023/01/23 11:00:16;;;;;;;17.77;14.03;;;3.10;99.90;;;;;;5053386;28;20189;-73
2023/01/23 11:02:42;;;;;;;13.03;11.70;;;3.30;99.90;;;;;;5053078;28;20767;-73
2023/01/23 11:05:38;;;;;;;14.00;12.50;;;3.50;99.90;;;;;;5052375;28;20262;-73
2023/01/23 11:08:39;;;;;;;10.10;9.17;;;3.80;99.90;;;;;;5052872;28;20219;-71
2023/01/23 11:11:14;;;;;;;15.20;12.77;;;3.80;99.90;;;;;;5061827;28;20183;-71
2023/01/23 11:13:47;;;;;;;14.90;12.67;;;3.70;99.90;;;;;;5072886;28;20181;-71
2023/01/23 11:16:20;;;;;;;17.83;13.00;;;3.70;99.90;;;;;;5073372;28;20184;-71
2023/01/23 11:19:03;;;;;;;15.90;13.40;;;3.60;99.90;;;;;;5072492;28;20198;-71
2023/01/23 11:21:37;;;;;;;14.07;12.10;;;3.60;99.90;;;;;;5072960;28;20283;-70
2023/01/23 11:24:20;;;;;;;16.30;14.00;;;3.50;99.90;;;;;;5072888;28;20591;-71
2023/01/23 11:26:46;;;;;;;16.03;13.27;;;3.40;99.90;;;;;;5072682;28;20212;-70
2023/01/23 11:29:24;;;;;;;19.63;13.43;;;3.50;99.90;;;;;;5071435;28;20199;-71
2023/01/23 11:32:02;;;;;;;15.80;13.33;;;3.60;99.90;;;;;;5071119;28;20319;-71
2023/01/23 11:34:35;;;;;;;16.50;13.67;;;3.60;99.90;;;;;;5073065;28;20286;-71
2023/01/23 11:37:11;;;;;;;17.83;14.00;;;3.60;99.90;;;;;;5071273;28;20184;-71
2023/01/23 11:39:52;;;;;;;17.23;14.27;;;3.70;99.90;;;;;;5072490;28;20180;-71
2023/01/23 11:42:19;;;;;;;17.80;13.60;;;3.70;99.90;;;;;;5073110;28;20196;-71
2023/01/23 11:44:46;;;;;;;16.27;13.33;;;3.70;99.90;;;;;;5072948;28;20199;-71
2023/01/23 11:47:52;;;;;;;18.10;13.43;;;3.70;99.90;;;;;;5072012;28;20196;-71
2023/01/23 11:50:43;;;;;;;15.73;14.03;;;3.70;99.90;;;;;;5044886;28;20182;-71
2023/01/23 11:53:35;;;;;;;17.70;13.87;;;3.50;99.90;;;;;;5031266;28;20242;-71
2023/01/23 11:56:20;;;;;;;17.00;14.10;;;3.50;99.90;;;;;;5032004;28;20205;-71
2023/01/23 11:59:17;;;;;;;15.73;13.70;;;3.70;99.90;;;;;;5030271;28;20190;-72
2023/01/23 12:02:10;;;;;;;11.43;10.33;;;3.80;99.90;;;;;;5070616;28;20185;-71
2023/01/23 12:05:04;;;;;;;16.47;13.37;;;3.70;99.90;;;;;;5062622;28;20613;-71
2023/01/23 12:07:44;;;;;;;18.73;13.33;;;3.70;99.90;;;;;;5071654;28;20180;-71
2023/01/23 12:10:27;;;;;;;14.83;12.50;;;3.80;99.90;;;;;;5071441;28;20242;-71
2023/01/23 12:13:17;;;;;;;14.20;12.70;;;4.10;99.90;;;;;;5060686;28;20557;-71
2023/01/23 12:15:56;;;;;;;15.30;11.63;;;4.50;99.90;;;;;;5051286;28;20204;-70
2023/01/23 12:18:37;;;;;;;15.67;11.93;;;4.70;99.90;;;;;;5051727;28;20606;-71
2023/01/23 12:21:29;;;;;;;13.00;11.40;;;4.60;99.90;;;;;;5051846;28;20181;-72
2023/01/23 12:24:27;;;;;;;14.67;11.27;;;4.40;99.90;;;;;;5050891;28;20636;-71
2023/01/23 12:27:20;;;;;;;10.07;9.17;;;4.30;99.90;;;;;;5051483;28;20185;-71
2023/01/23 12:30:27;;;;;;;11.77;10.57;;;4.30;99.90;;;;;;5051517;28;20188;-71
2023/01/23 12:33:13;;;;;;;15.13;13.23;;;4.30;99.90;;;;;;5049556;28;20259;-70
2023/01/23 12:35:58;;;;;;;15.43;12.00;;;4.50;99.90;;;;;;5051069;28;20790;-70
2023/01/23 12:38:38;;;;;;;14.63;12.30;;;4.60;99.90;;;;;;5050511;28;20645;-71
2023/01/23 12:41:13;;;;;;;15.93;12.33;;;4.60;99.90;;;;;;5050952;28;20667;-71
2023/01/23 12:43:50;;;;;;;14.10;12.77;;;4.70;99.90;;;;;;5051025;28;20246;-70
2023/01/23 12:46:27;;;;;;;14.00;12.57;;;4.70;99.90;;;;;;5049489;28;20256;-70
2023/01/23 12:49:31;;;;;;;14.73;13.23;;;4.70;99.90;;;;;;5057425;28;20176;-71
2023/01/23 12:52:22;;;;;;;14.07;12.30;;;4.40;99.90;;;;;;5071069;28;20617;-71
2023/01/23 12:55:17;;;;;;;14.00;12.20;;;4.40;99.90;;;;;;5070563;28;20295;-71
2023/01/23 12:57:50;;;;;;;13.53;10.40;;;4.40;99.90;;;;;;5082250;22;20240;-70
2023/01/23 13:00:54;;;;;;;12.67;10.77;;;4.50;99.90;;;;;;5048817;28;20238;-70
2023/01/23 13:03:41;;;;;;;16.10;11.77;;;4.80;99.90;;;;;;5037481;28;20197;-70
2023/01/23 13:06:17;;;;;;;16.10;11.57;;;5.20;99.90;;;;;;5049513;28;20188;-70
2023/01/23 13:08:54;;;;;;;17.37;13.07;;;5.20;99.90;;;;;;5049160;28;20213;-71
2023/01/23 13:11:44;;;;;;;13.57;10.90;;;5.20;99.90;;;;;;5050772;28;20184;-70
2023/01/23 13:14:16;;;;;;;14.13;11.17;;;5.10;99.90;;;;;;5049765;28;20180;-70
2023/01/23 13:16:47;;;;;;;13.53;11.07;;;5.00;99.90;;;;;;5050390;28;20184;-71
2023/01/23 13:22:17;;;;;;;16.07;11.83;;;5.00;99.90;;;;;;5047127;28;20273;-70
2023/01/23 13:27:44;;;;;;;15.20;10.10;;;5.60;99.90;;;;;;5030236;28;20209;-70
2023/01/23 13:30:31;;;;;;;20.50;11.27;;;5.80;99.90;;;;;;5030365;28;20206;-70
2023/01/23 13:33:05;;;;;;;34.33;13.33;;;6.10;99.90;;;;;;5030573;28;20237;-70
2023/01/23 13:35:46;;;;;;;13.37;11.20;;;6.30;99.90;;;;;;5030842;28;20183;-70
2023/01/23 13:38:21;;;;;;;15.77;13.00;;;6.20;99.90;;;;;;5028581;28;20674;-70
2023/01/23 13:41:07;;;;;;;12.17;9.40;;;6.20;99.90;;;;;;5030520;28;20182;-70
2023/01/23 13:43:53;;;;;;;13.40;10.97;;;5.90;99.90;;;;;;5029416;28;20732;-70
2023/01/23 13:46:27;;;;;;;12.70;11.40;;;5.60;99.90;;;;;;5029014;28;20190;-71
2023/01/23 13:57:47;;;;;;;15.03;11.23;;;5.40;99.90;;;;;;5051157;28;20236;-71
2023/01/23 14:00:23;;;;;;;14.87;10.00;;;5.10;99.90;;;;;;5046931;28;20197;-70
2023/01/23 14:06:11;;;;;;;10.53;9.03;;;4.40;99.90;;;;;;5028777;28;20208;-70
2023/01/23 14:08:49;;;;;;;12.83;10.53;;;4.20;99.90;;;;;;5035644;28;20202;-71
2023/01/23 14:11:16;;;;;;;10.73;9.93;;;4.00;99.90;;;;;;5050257;28;20195;-70
2023/01/23 14:13:50;;;;;;;14.47;12.67;;;3.90;99.90;;;;;;5050173;28;20552;-70
2023/01/23 14:16:23;;;;;;;13.73;12.33;;;3.80;99.90;;;;;;5069511;28;20216;-70
2023/01/23 14:18:50;;;;;;;10.53;9.53;;;3.80;99.90;;;;;;5054807;28;20295;-71
2023/01/23 14:21:33;;;;;;;15.40;10.83;;;3.80;99.90;;;;;;5040770;28;20190;-71
2023/01/23 14:24:02;;;;;;;14.27;11.67;;;3.70;99.90;;;;;;5033146;28;20268;-71
2023/01/23 14:26:33;;;;;;;12.03;10.80;;;3.70;99.90;;;;;;5033916;28;20185;-70
2023/01/23 14:29:00;;;;;;;11.63;10.40;;;3.70;99.90;;;;;;5034014;28;20210;-70
2023/01/23 14:31:27;;;;;;;13.33;12.03;;;3.70;99.90;;;;;;5033858;28;20192;-71
2023/01/23 14:34:05;;;;;;;12.57;11.37;;;3.60;99.90;;;;;;5034015;28;20315;-70
2023/01/23 14:36:36;;;;;;;14.60;13.03;;;3.60;99.90;;;;;;5053165;28;20276;-70
2023/01/23 14:39:04;;;;;;;16.13;14.27;;;3.60;99.90;;;;;;5048822;28;20185;-70
2023/01/23 14:41:37;;;;;;;15.07;13.57;;;3.60;99.90;;;;;;5040382;28;20211;-70
2023/01/23 14:44:03;;;;;;;12.83;11.47;;;3.50;99.90;;;;;;5053711;28;20235;-70
2023/01/23 14:46:38;;;;;;;16.17;13.97;;;3.50;99.90;;;;;;5053590;28;20654;-70
2023/01/23 14:49:07;;;;;;;15.40;12.73;;;3.40;99.90;;;;;;5053367;28;20187;-70
2023/01/23 14:51:33;;;;;;;11.20;10.10;;;3.40;99.90;;;;;;5034810;28;20516;-70
2023/01/23 14:54:04;;;;;;;12.83;11.00;;;3.40;99.90;;;;;;5041790;28;20180;-70
2023/01/23 14:56:32;;;;;;;11.70;10.47;;;3.30;99.90;;;;;;5051938;28;20195;-70
2023/01/23 14:59:05;;;;;;;15.00;13.40;;;3.30;99.90;;;;;;5052892;28;20217;-70
2023/01/23 15:01:31;;;;;;;16.83;14.17;;;3.30;99.90;;;;;;5053563;28;20178;-70
2023/01/23 15:04:03;;;;;;;16.07;13.73;;;3.30;99.90;;;;;;5053402;28;20739;-70
2023/01/23 15:06:32;;;;;;;17.27;14.13;;;3.30;99.90;;;;;;5053493;28;20212;-71
2023/01/23 15:09:12;;;;;;;16.27;13.67;;;3.30;99.90;;;;;;5052700;28;20202;-70
2023/01/23 15:11:38;;;;;;;16.33;13.00;;;3.30;99.90;;;;;;5032568;28;20306;-70
2023/01/23 15:14:04;;;;;;;17.13;14.80;;;3.20;99.90;;;;;;5032144;28;20270;-71
2023/01/23 15:16:36;;;;;;;17.77;15.87;;;3.20;99.90;;;;;;5032092;28;20185;-69
2023/01/23 15:19:17;;;;;;;16.90;15.10;;;3.20;99.90;;;;;;5047717;28;20181;-71
2023/01/23 15:21:43;;;;;;;16.27;13.67;;;3.30;99.90;;;;;;5064524;28;20207;-71
2023/01/23 15:24:12;;;;;;;17.67;15.43;;;3.30;99.90;;;;;;5072765;28;20169;-69
2023/01/23 15:26:40;;;;;;;11.73;10.83;;;3.20;99.90;;;;;;5072936;28;20656;-71
2023/01/23 15:29:09;;;;;;;16.80;14.97;;;3.20;99.90;;;;;;5071492;28;20176;-69
2023/01/23 15:31:43;;;;;;;18.17;15.50;;;3.20;99.90;;;;;;5055835;28;20187;-69
2023/01/23 15:34:15;;;;;;;18.70;16.80;;;3.20;99.90;;;;;;5056697;28;20172;-69
2023/01/23 15:36:50;;;;;;;18.73;16.73;;;3.20;99.90;;;;;;5047914;28;20183;-70
2023/01/23 15:39:23;;;;;;;18.37;16.03;;;3.20;99.90;;;;;;5052210;28;20177;-70
2023/01/23 15:41:58;;;;;;;17.63;15.93;;;3.20;99.90;;;;;;5052118;28;20733;-70
2023/01/23 15:44:26;;;;;;;17.40;15.47;;;3.30;99.90;;;;;;5052408;28;20265;-70
2023/01/23 15:46:52;;;;;;;20.10;18.00;;;3.20;99.90;;;;;;5048817;28;20177;-69
2023/01/23 15:49:18;;;;;;;17.60;15.80;;;3.30;99.90;;;;;;5039041;28;20191;-70
2023/01/23 15:51:43;;;;;;;18.17;16.43;;;3.30;99.90;;;;;;5033037;28;20188;-69
2023/01/23 15:54:23;;;;;;;17.63;15.77;;;3.30;99.90;;;;;;5035494;28;20209;-70
2023/01/23 15:56:49;;;;;;;19.63;16.90;;;3.30;99.90;;;;;;5031676;28;20194;-70
2023/01/23 15:59:16;;;;;;;18.87;16.87;;;3.40;99.90;;;;;;5055332;28;20191;-70
2023/01/23 16:01:42;;;;;;;19.53;17.43;;;3.30;99.90;;;;;;5061562;28;20224;-69
2023/01/23 16:04:08;;;;;;;18.77;16.73;;;3.30;99.90;;;;;;5052514;28;20644;-69
2023/01/23 16:06:35;;;;;;;17.90;15.83;;;3.40;99.90;;;;;;5052167;28;20190;-69
2023/01/23 16:09:02;;;;;;;20.10;17.93;;;3.30;99.90;;;;;;5051715;28;20188;-69
2023/01/23 16:11:32;;;;;;;16.83;15.20;;;3.30;99.90;;;;;;5051403;28;20648;-69
2023/01/23 16:13:59;;;;;;;19.53;17.43;;;3.30;99.90;;;;;;5052877;28;20190;-71
2023/01/23 16:16:24;;;;;;;19.97;16.57;;;3.30;99.90;;;;;;5051938;28;20294;-71
2023/01/23 16:18:50;;;;;;;19.63;17.07;;;3.30;99.90;;;;;;5048747;28;21045;-71
2023/01/23 16:21:18;;;;;;;18.57;15.83;;;3.30;99.90;;;;;;5058651;28;20195;-71
2023/01/23 16:23:44;;;;;;;18.20;16.17;;;3.30;99.90;;;;;;5051380;28;20242;-72
2023/01/23 16:26:29;;;;;;;21.00;16.60;;;3.40;99.90;;;;;;5050044;28;20265;-72
2023/01/23 16:28:55;;;;;;;19.27;17.40;;;3.30;99.90;;;;;;5050801;28;20201;-71
2023/01/23 16:31:21;;;;;;;18.53;16.60;;;3.30;99.90;;;;;;5051125;28;20188;-70
2023/01/23 16:33:47;;;;;;;16.13;14.67;;;3.30;99.90;;;;;;5051185;28;20645;-69
2023/01/23 16:36:18;;;;;;;20.97;18.80;;;3.30;99.90;;;;;;5049875;28;20176;-72
2023/01/23 16:38:50;;;;;;;19.67;17.00;;;3.30;99.90;;;;;;5050924;28;20211;-72
2023/01/23 16:41:16;;;;;;;18.80;16.87;;;3.30;99.90;;;;;;5050529;28;20256;-71
2023/01/23 16:43:42;;;;;;;19.27;17.20;;;3.30;99.90;;;;;;5051100;28;20208;-71
2023/01/23 16:46:10;;;;;;;21.10;16.20;;;3.30;99.90;;;;;;5051054;28;20184;-71
2023/01/23 16:48:36;;;;;;;21.83;16.23;;;3.20;99.90;;;;;;5050692;28;20595;-71
2023/01/23 16:51:06;;;;;;;21.47;18.27;;;3.20;99.90;;;;;;5049924;28;20188;-72
2023/01/23 16:53:36;;;;;;;20.30;18.13;;;3.30;99.90;;;;;;5051155;28;20587;-71
2023/01/23 16:56:03;;;;;;;18.97;15.03;;;3.40;99.90;;;;;;5050035;28;20182;-71
2023/01/23 16:58:33;;;;;;;26.00;15.97;;;3.30;99.90;;;;;;5050361;28;20220;-71
2023/01/23 17:01:16;;;;;;;17.90;16.00;;;3.30;99.90;;;;;;5049951;28;20200;-71
2023/01/23 17:03:42;;;;;;;21.93;17.80;;;3.30;99.90;;;;;;5051120;28;20247;-71
2023/01/23 17:06:15;;;;;;;18.60;16.43;;;3.30;99.90;;;;;;5051251;28;20831;-71
2023/01/23 17:08:41;;;;;;;19.80;17.57;;;3.30;99.90;;;;;;5050657;28;20238;-70
2023/01/23 17:11:07;;;;;;;18.90;16.07;;;3.30;99.90;;;;;;5050768;28;20208;-71
2023/01/23 17:13:34;;;;;;;18.37;16.37;;;3.30;99.90;;;;;;5051413;28;20187;-71
2023/01/23 17:16:02;;;;;;;19.00;16.97;;;3.30;99.90;;;;;;5053182;28;20226;-71
2023/01/23 17:18:32;;;;;;;20.67;16.57;;;3.30;99.90;;;;;;5052461;28;20212;-71
2023/01/23 17:20:58;;;;;;;18.73;16.60;;;3.30;99.90;;;;;;5050637;28;20191;-71
2023/01/23 17:23:25;;;;;;;20.87;18.60;;;3.30;99.90;;;;;;5050271;28;20205;-71
2023/01/23 17:25:52;;;;;;;21.07;18.70;;;3.30;99.90;;;;;;5050600;28;20188;-71
2023/01/23 17:28:19;;;;;;;19.77;17.73;;;3.30;99.90;;;;;;5049934;28;20203;-71
2023/01/23 17:30:48;;;;;;;18.03;16.10;;;3.30;99.90;;;;;;5050618;28;20182;-71
2023/01/23 17:33:20;;;;;;;19.80;17.70;;;3.30;99.90;;;;;;5050492;28;20190;-71
2023/01/23 17:35:47;;;;;;;21.67;17.77;;;3.30;99.90;;;;;;5049202;28;20192;-71
2023/01/23 17:38:21;;;;;;;20.00;17.93;;;3.30;99.90;;;;;;5044322;28;20198;-71
2023/01/23 17:40:48;;;;;;;20.57;17.63;;;3.30;99.90;;;;;;5047822;28;20596;-71
2023/01/23 17:43:15;;;;;;;20.07;17.87;;;3.30;99.90;;;;;;5049179;28;20267;-76
2023/01/23 17:45:44;;;;;;;19.87;17.20;;;3.20;99.90;;;;;;5054615;28;20208;-76
2023/01/23 17:48:16;;;;;;;20.37;18.20;;;3.30;99.90;;;;;;5058096;28;20739;-76
2023/01/23 17:50:45;;;;;;;23.83;18.33;;;3.30;99.90;;;;;;5044609;28;20269;-77
2023/01/23 17:53:16;;;;;;;20.07;18.10;;;3.30;99.90;;;;;;5031490;28;20197;-77
2023/01/23 17:55:45;;;;;;;23.43;21.03;;;3.30;99.90;;;;;;5035894;28;20227;-77
2023/01/23 17:58:14;;;;;;;26.57;24.07;;;3.30;99.90;;;;;;5038295;28;20219;-76
2023/01/23 18:00:42;;;;;;;26.17;23.47;;;3.30;99.90;;;;;;5054121;28;20247;-77
2023/01/23 18:03:12;;;;;;;26.63;23.97;;;3.30;99.90;;;;;;5054469;28;20217;-77
2023/01/23 18:05:38;;;;;;;31.73;29.00;;;3.30;99.90;;;;;;5050670;28;20188;-75
2023/01/23 18:08:04;;;;;;;29.37;26.50;;;3.30;99.90;;;;;;5052573;28;20731;-76
2023/01/23 18:10:33;;;;;;;27.53;24.93;;;3.30;99.90;;;;;;5053433;28;20186;-76
2023/01/23 18:13:34;;;;;;;23.67;21.10;;;3.30;99.90;;;;;;5043819;28;20189;-76
2023/01/23 18:16:14;;;;;;;28.50;25.80;;;3.30;99.90;;;;;;5042058;28;20186;-77
2023/01/23 18:18:41;;;;;;;27.37;24.57;;;3.30;99.90;;;;;;5034930;28;20206;-77
2023/01/23 18:21:16;;;;;;;28.03;25.30;;;3.30;99.90;;;;;;5042187;28;20215;-77
2023/01/23 18:23:42;;;;;;;30.57;28.03;;;3.40;99.90;;;;;;5055570;28;20217;-77
2023/01/23 18:26:46;;;;;;;29.30;26.63;;;3.40;99.90;;;;;;5044851;28;20190;-79
2023/01/23 18:29:34;;;;;;;28.63;26.17;;;3.40;99.90;;;;;;5053865;28;20214;-77
2023/01/23 18:32:22;;;;;;;30.50;27.77;;;3.40;99.90;;;;;;5067891;28;20232;-77
2023/01/23 18:35:28;;;;;;;28.67;25.93;;;3.40;99.90;;;;;;5054793;28;20186;-83
2023/01/23 18:38:16;;;;;;;25.67;23.07;;;3.40;99.90;;;;;;5050960;28;20291;-77
2023/01/23 18:41:05;;;;;;;33.27;30.33;;;3.40;99.90;;;;;;5050907;28;20648;-77
2023/01/23 18:43:37;;;;;;;35.10;32.00;;;3.30;99.90;;;;;;5059952;28;20229;-78
2023/01/23 18:46:04;;;;;;;32.73;29.70;;;3.40;99.90;;;;;;5044916;28;20183;-80
2023/01/23 18:48:34;;;;;;;34.47;31.60;;;3.30;99.90;;;;;;5055628;28;20195;-76
2023/01/23 18:51:29;;;;;;;36.03;32.87;;;3.40;99.90;;;;;;5057457;28;20707;-78
2023/01/23 18:54:21;;;;;;;36.23;33.23;;;3.40;99.90;;;;;;5052486;28;20224;-81
2023/01/23 18:57:21;;;;;;;33.77;30.97;;;3.40;99.90;;;;;;5037763;28;20541;-81
2023/01/23 18:59:58;;;;;;;32.20;29.30;;;3.30;99.90;;;;;;5037074;23;20373;-78
2023/01/23 19:02:27;;;;;;;30.57;27.87;;;3.40;99.90;;;;;;5016830;28;20222;-79
2023/01/23 19:05:19;;;;;;;32.53;29.73;;;3.40;99.90;;;;;;5015908;28;20562;-79
2023/01/23 19:07:45;;;;;;;33.83;31.03;;;3.40;99.90;;;;;;5014344;28;20186;-79
2023/01/23 19:10:14;;;;;;;31.80;29.10;;;3.40;99.90;;;;;;4992319;28;20200;-76
2023/01/23 19:13:10;;;;;;;32.17;29.37;;;3.40;99.90;;;;;;5000462;28;20185;-76
2023/01/23 19:15:56;;;;;;;33.67;30.80;;;3.40;99.90;;;;;;4994104;28;20554;-76
2023/01/23 19:18:46;;;;;;;31.63;29.03;;;3.40;99.90;;;;;;4993121;28;20258;-76
2023/01/23 19:21:21;;;;;;;32.47;29.70;;;3.40;99.90;;;;;;4993523;28;20209;-78
2023/01/23 19:24:02;;;;;;;35.97;33.07;;;3.40;99.90;;;;;;4992107;28;20217;-76
2023/01/23 19:26:31;;;;;;;33.87;31.23;;;3.50;99.90;;;;;;4993368;28;20188;-76
2023/01/23 19:28:59;;;;;;;33.30;30.63;;;3.40;99.90;;;;;;4991851;28;20211;-76
2023/01/23 19:31:26;;;;;;;34.40;31.70;;;3.40;99.90;;;;;;4994363;28;20273;-76
2023/01/23 19:33:53;;;;;;;32.43;29.60;;;3.40;99.90;;;;;;4995329;28;20190;-76
2023/01/23 19:36:19;;;;;;;32.40;29.50;;;3.40;99.90;;;;;;4995136;28;20644;-76
2023/01/23 19:38:45;;;;;;;24.20;22.17;;;3.40;99.90;;;;;;4995661;28;20661;-75
2023/01/23 19:41:22;;;;;;;22.73;20.63;;;3.40;99.90;;;;;;4991757;28;20218;-76
2023/01/23 19:43:52;;;;;;;23.13;20.83;;;3.40;99.90;;;;;;4992179;28;20207;-77
2023/01/23 19:46:19;;;;;;;22.73;20.37;;;3.40;99.90;;;;;;4993063;28;20269;-76
2023/01/23 19:48:45;;;;;;;21.27;19.23;;;3.40;99.90;;;;;;4991463;28;20207;-77
2023/01/23 19:51:16;;;;;;;21.57;19.40;;;3.40;99.90;;;;;;4994936;28;20185;-76
2023/01/23 19:53:43;;;;;;;22.23;19.53;;;3.50;99.90;;;;;;4992826;28;20179;-76
2023/01/23 19:56:14;;;;;;;22.57;20.27;;;3.50;99.90;;;;;;4992162;28;20181;-76
2023/01/23 19:58:40;;;;;;;18.73;16.93;;;3.50;99.90;;;;;;4991235;28;20299;-76
2023/01/23 20:01:32;;;;;;;22.37;20.30;;;3.50;99.90;;;;;;4991939;28;20180;-76
2023/01/23 20:03:57;;;;;;;22.23;18.47;;;3.50;99.90;;;;;;4973598;28;20762;-76
2023/01/23 20:06:23;;;;;;;20.57;16.57;;;3.40;99.90;;;;;;4973231;28;20276;-75
2023/01/23 20:08:49;;;;;;;21.47;16.17;;;3.50;99.90;;;;;;4971981;28;20258;-76
2023/01/23 20:11:15;;;;;;;18.93;16.93;;;3.50;99.90;;;;;;4974091;28;20724;-76
2023/01/23 20:13:41;;;;;;;22.93;20.47;;;3.50;99.90;;;;;;4992827;28;20658;-76
2023/01/23 20:16:18;;;;;;;20.37;18.00;;;3.50;99.90;;;;;;4993237;28;20180;-77
2023/01/23 20:18:48;;;;;;;22.57;18.20;;;3.50;99.90;;;;;;4991444;28;20685;-78
2023/01/23 20:21:16;;;;;;;20.60;16.73;;;3.50;99.90;;;;;;4992287;28;20189;-77
2023/01/23 20:23:42;;;;;;;19.93;17.93;;;3.50;99.90;;;;;;4991418;28;20214;-77
2023/01/23 20:26:08;;;;;;;15.47;14.03;;;3.50;99.90;;;;;;4991932;28;20178;-77
2023/01/23 20:28:34;;;;;;;17.10;13.73;;;3.50;99.90;;;;;;4991397;28;20215;-77
2023/01/23 20:31:05;;;;;;;17.93;14.67;;;3.40;99.90;;;;;;4992812;28;20183;-77
2023/01/23 20:33:31;;;;;;;17.47;15.03;;;3.40;99.90;;;;;;4992348;28;20562;-77
2023/01/23 20:35:57;;;;;;;20.20;18.07;;;3.50;99.90;;;;;;4991414;28;20199;-77
2023/01/23 20:38:22;;;;;;;18.80;16.43;;;3.40;99.90;;;;;;4992928;28;20211;-76
2023/01/23 20:40:48;;;;;;;18.97;16.17;;;3.50;99.90;;;;;;4991368;28;20197;-77
2023/01/23 20:43:15;;;;;;;20.27;16.80;;;3.50;99.90;;;;;;4992199;28;20738;-77
2023/01/23 20:45:45;;;;;;;26.30;22.03;;;3.50;99.90;;;;;;4992126;28;20182;-79
2023/01/23 20:48:11;;;;;;;24.40;20.70;;;3.50;99.90;;;;;;4990518;28;20555;-77
2023/01/23 20:50:37;;;;;;;22.40;20.00;;;3.50;99.90;;;;;;4991190;28;20207;-77
2023/01/23 20:55:53;;;;;;;21.43;19.20;;;3.50;99.90;;;;;;4992566;28;20181;-77
2023/01/23 21:01:04;;;;;;;22.07;19.90;;;3.50;99.90;;;;;;4992491;28;20190;-77
2023/01/23 21:03:30;;;;;;;18.67;16.30;;;3.50;99.90;;;;;;4992021;28;20215;-76
2023/01/23 21:05:56;;;;;;;19.13;16.30;;;3.50;99.90;;;;;;4991062;28;20181;-76
2023/01/23 21:08:21;;;;;;;18.97;16.07;;;3.40;99.90;;;;;;4990139;28;20213;-77
2023/01/23 21:10:47;;;;;;;20.93;16.93;;;3.40;99.90;;;;;;4990754;28;20179;-77